Latest Weather Observations for Darwin

IDD60801

Issued at 5:05 pm CST Friday 25 April 2014 (issued every 30 minutes, with the page automatically refreshed every 10 minutes)

About weather observations | Map of weather stations | Latest weather observations for NT | Other Formats
Station Details ID: 014015 Name: DARWIN AIRPORT Lat: -12.42 Lon: 130.89 Height: 30.4 m
Data from the previous 72 hours. | See also: Recent months at Darwin
Date/Time
CST
Temp
°C
App
Temp
°C
Dew
Point
Rel
Hum
%
Delta-T
°C
Wind Press
QNH
hPa
Press
MSL
hPa
Rain
since 9 am
mm
Dir
 
Spd
km/h
Gust
km/h
Spd
kts
Gust
kts
25/05:00pm 30.1 32.0 22.0 62 5.5 NW 15 17 8 9 1006.0 - 0.0
25/04:30pm 30.3 32.4 22.5 63 5.3 NNW 15 17 8 9 1006.0 - 0.0
25/04:00pm 30.3 32.8 23.2 65 4.9 NNW 15 17 8 9 1006.0 - 0.0
25/03:30pm 30.8 33.1 22.8 62 5.5 NNW 15 17 8 9 1006.1 - 0.0
25/03:00pm 31.1 33.7 22.6 60 5.8 NNW 13 17 7 9 1006.4 1006.1 0.0
25/02:30pm 31.2 33.2 22.3 59 6.1 NNW 15 19 8 10 1006.8 - 0.0
25/02:00pm 31.9 35.7 21.0 52 7.3 E 2 11 1 6 1007.2 - 0.0
25/01:30pm 31.3 33.6 20.7 53 7.1 S 9 13 5 7 1007.6 - 0.0
25/01:00pm 31.3 34.6 21.9 57 6.4 S 7 11 4 6 1008.0 - 0.0
25/12:30pm 30.2 32.4 21.1 58 6.1 E 11 24 6 13 1008.7 - 0.0
25/12:00pm 30.1 32.6 21.8 61 5.6 E 11 17 6 9 1009.4 1009.1 0.0
25/11:30am 30.0 32.5 22.4 63 5.2 E 13 19 7 10 1009.8 - 0.0
25/11:00am 29.4 31.4 22.2 65 4.9 SE 15 19 8 10 1010.1 - 0.0
25/10:30am 29.1 31.6 21.8 64 4.9 SE 11 13 6 7 1010.1 - 0.0
25/10:00am 28.9 30.7 21.9 66 4.7 SSE 15 17 8 9 1010.2 - 0.0
25/09:30am 28.4 31.2 23.0 72 3.7 S 13 19 7 10 1010.0 - 0.0
25/09:00am 27.7 30.8 24.1 81 2.5 S 15 17 8 9 1009.7 1009.4 0.0
25/08:30am 27.2 31.2 25.1 88 1.5 SSE 13 17 7 9 1009.4 - 0.0
25/08:00am 26.8 30.5 25.1 90 1.2 S 15 17 8 9 1009.1 - 0.0
25/07:30am 26.8 30.7 24.9 89 1.3 S 13 15 7 8 1008.8 - 0.0
25/07:00am 26.7 30.3 25.0 90 1.2 S 15 19 8 10 1008.3 - 0.0
25/06:30am 26.7 30.6 24.8 89 1.3 S 13 13 7 7 1007.9 - 0.0
25/06:00am 26.9 30.3 24.7 88 1.5 SSW 15 19 8 10 1007.4 1007.1 0.0
25/05:30am 27.0 30.2 24.9 88 1.5 SSW 17 20 9 11 1007.1 - 0.0
25/05:00am 27.1 30.3 25.0 88 1.5 SSW 17 20 9 11 1007.1 - 0.0
25/04:30am 27.0 30.8 25.3 90 1.2 SSW 15 19 8 10 1006.9 - 0.0
25/04:00am 27.2 31.1 24.9 87 1.6 SW 13 15 7 8 1006.8 - 0.0
25/03:30am 27.2 31.2 25.1 88 1.5 SW 13 15 7 8 1006.8 - 0.0
25/03:00am 27.2 30.7 24.9 87 1.6 SW 15 17 8 9 1006.8 1006.5 0.0
25/02:30am 27.3 31.5 24.7 86 1.8 SSW 11 15 6 8 1007.0 - 0.0
25/02:00am 27.3 31.4 24.6 85 1.9 SW 11 13 6 7 1007.3 - 0.0
25/01:30am 27.5 31.6 24.5 84 2.1 SW 11 15 6 8 1007.5 - 0.0
25/01:00am 27.7 31.7 24.4 82 2.3 WSW 11 15 6 8 1007.9 - 0.0
25/12:30am 28.0 31.6 24.4 81 2.5 WSW 13 17 7 9 1008.2 - 0.0
25/12:00am 27.9 31.9 25.0 84 2.0 W 13 17 7 9 1008.4 1008.1 0.0
 
Date/Time
CST
Temp
°C
App
Temp
°C
Dew
Point
Rel
Hum
%
Delta-T
°C
Wind Press
QNH
hPa
Press
MSL
hPa
Rain
since 9 am
mm
Dir
 
Spd
km/h
Gust
km/h
Spd
kts
Gust
kts
24/11:30pm 27.8 32.2 25.1 85 1.9 W 11 15 6 8 1008.6 - 0.0
24/11:00pm 28.1 32.1 25.1 84 2.1 W 13 15 7 8 1008.8 - 0.0
24/10:30pm 28.1 32.3 25.3 85 2.0 W 13 15 7 8 1009.0 - 0.0
24/10:00pm 28.3 32.5 25.3 84 2.1 W 13 17 7 9 1008.9 - 0.0
24/09:30pm 28.3 32.4 25.2 83 2.2 W 13 15 7 8 1008.8 - 0.0
24/09:00pm 28.4 32.4 25.0 82 2.4 W 13 15 7 8 1008.5 1008.2 0.0
24/08:30pm 28.6 32.5 24.9 80 2.6 W 13 15 7 8 1008.1 - 0.0
24/08:00pm 28.7 32.1 24.7 79 2.8 W 15 19 8 10 1007.5 - 0.0
24/07:30pm 28.9 32.6 24.6 77 3.0 W 13 15 7 8 1007.0 - 0.0
24/07:00pm 29.2 33.1 24.2 74 3.5 W 11 15 6 8 1006.5 - 0.0
24/06:30pm 29.8 33.7 24.8 74 3.5 WNW 13 17 7 9 1006.1 - 0.0
24/06:00pm 30.0 33.2 24.9 74 3.6 WNW 17 20 9 11 1005.8 1005.5 0.0
24/05:30pm 30.8 33.1 24.1 67 4.7 WNW 19 20 10 11 1005.4 - 0.0
24/05:00pm 31.2 33.2 24.0 65 5.0 WNW 20 26 11 14 1005.2 - 0.0
24/04:30pm 33.5 33.9 17.3 38 10.4 SW 11 15 6 8 1005.1 - 0.0
24/04:00pm 33.7 34.8 18.0 39 10.2 SE 9 13 5 7 1005.3 - 0.0
24/03:30pm 33.8 35.3 18.9 41 9.8 SSE 9 15 5 8 1005.5 - 0.0
24/03:00pm 33.7 34.1 19.1 42 9.6 S 15 20 8 11 1005.8 1005.5 0.0
24/02:30pm 33.7 34.1 18.9 41 9.7 SSE 15 22 8 12 1006.1 - 0.0
24/02:00pm 33.3 34.0 19.7 44 9.0 SSE 15 24 8 13 1006.5 - 0.0
24/01:30pm 32.8 33.0 19.3 45 8.9 S 17 26 9 14 1006.8 - 0.0
24/01:00pm 32.7 32.1 19.7 46 8.6 SSE 22 30 12 16 1007.1 - 0.0
24/12:30pm 32.2 32.5 20.5 50 7.8 S 19 28 10 15 1007.7 - 0.0
24/12:00pm 31.9 32.2 20.5 51 7.6 S 19 26 10 14 1008.1 1007.8 0.0
24/11:30am 31.8 32.6 21.4 54 7.0 SSE 19 30 10 16 1008.9 - 0.0
24/11:00am 31.2 32.4 22.2 58 6.1 SSE 19 26 10 14 1009.5 - 0.0
24/10:30am 30.4 32.1 23.0 64 5.1 SSE 19 26 10 14 1010.0 - 0.0
24/10:00am 29.4 31.1 23.0 68 4.4 SSE 19 28 10 15 1010.0 - 0.0
24/09:30am 29.2 31.8 24.0 73 3.6 SSE 17 20 9 11 1009.9 - 0.0
24/09:00am 28.1 30.7 23.3 75 3.3 SSE 15 22 8 12 1009.7 1009.4 0.0
24/08:30am 27.2 30.4 23.7 81 2.4 SSE 13 17 7 9 1009.1 - 0.0
24/08:00am 26.4 29.7 23.8 85 1.8 SE 13 15 7 8 1008.9 - 0.0
24/07:30am 25.8 29.4 23.8 89 1.4 SE 11 15 6 8 1008.1 - 0.0
24/07:00am 25.6 29.6 23.7 89 1.3 SE 9 13 5 7 1007.6 - 0.0
24/06:30am 25.6 29.1 23.6 89 1.4 SSE 11 15 6 8 1007.2 - 0.0
24/06:00am 25.8 29.3 23.5 87 1.6 SSE 11 11 6 6 1007.0 1006.7 0.0
24/05:30am 26.0 29.4 23.4 85 1.8 ESE 11 13 6 7 1006.7 - 0.0
24/05:00am 25.6 29.2 23.7 89 1.3 E 11 11 6 6 1006.7 - 0.0
24/04:30am 25.6 29.9 24.2 92 1.0 ESE 9 9 5 5 1006.6 - 0.0
24/04:00am 26.1 30.7 24.2 89 1.3 ESE 7 9 4 5 1006.6 - 0.0
24/03:30am 26.0 30.8 24.4 91 1.1 ESE 7 9 4 5 1006.6 - 0.0
24/03:00am 26.4 30.7 24.2 88 1.5 E 9 9 5 5 1006.7 1006.4 0.0
24/02:30am 26.6 30.5 24.3 87 1.6 E 11 13 6 7 1006.9 - 0.0
24/02:00am 26.6 30.3 24.6 89 1.4 E 13 17 7 9 1007.1 - 0.0
24/01:30am 26.7 30.5 24.7 89 1.4 E 13 17 7 9 1007.7 - 0.0
24/01:00am 27.4 31.6 24.8 86 1.8 E 11 17 6 9 1007.7 - 0.0
24/12:30am 27.7 32.3 25.4 87 1.6 S 11 13 6 7 1008.2 - 0.0
24/12:00am 27.7 32.6 25.3 87 1.7 SE 9 11 5 6 1008.3 1008.0 0.0
 
Date/Time
CST
Temp
°C
App
Temp
°C
Dew
Point
Rel
Hum
%
Delta-T
°C
Wind Press
QNH
hPa
Press
MSL
hPa
Rain
since 9 am
mm
Dir
 
Spd
km/h
Gust
km/h
Spd
kts
Gust
kts
23/11:30pm 28.3 32.9 25.3 84 2.1 SW 11 13 6 7 1008.2 - 0.0
23/11:00pm 27.2 34.0 25.5 90 1.2 CALM 0 0 0 0 1008.6 - 0.0
23/10:30pm 27.2 32.8 25.4 90 1.3 NW 6 7 3 4 1008.8 - 0.0
23/10:00pm 27.4 32.8 25.4 89 1.4 NW 7 9 4 5 1008.8 - 0.0
23/09:30pm 27.6 32.9 25.2 87 1.7 N 7 9 4 5 1008.8 - 0.0
23/09:00pm 28.1 33.4 25.3 85 2.0 WNW 7 9 4 5 1008.4 1008.1 0.0
23/08:30pm 28.9 33.4 24.6 77 3.0 W 9 11 5 6 1007.6 - 0.0
23/08:00pm 29.1 33.4 24.2 75 3.4 NNW 9 11 5 6 1007.2 - 0.0
23/07:30pm 29.2 33.3 23.9 73 3.7 N 9 11 5 6 1007.1 - 0.0
23/07:00pm 29.2 31.4 23.9 73 3.7 N 19 22 10 12 1007.0 - 0.0
23/06:30pm 29.7 31.7 23.6 69 4.2 N 19 28 10 15 1006.6 - 0.0
23/06:00pm 30.3 32.5 24.0 69 4.4 N 19 20 10 11 1006.2 1005.9 0.0
23/05:30pm 30.9 33.0 23.7 65 5.0 N 19 22 10 12 1005.6 - 0.0
23/05:00pm 33.1 34.6 20.6 47 8.4 NE 13 19 7 10 1005.2 - 0.0
23/04:30pm 33.5 34.1 20.2 45 8.9 SSE 17 24 9 13 1005.1 - 0.0
23/04:00pm 32.9 33.9 20.2 47 8.5 SE 15 20 8 11 1005.2 - 0.0
23/03:30pm 33.8 34.1 20.4 45 9.0 SE 19 26 10 14 1005.3 - 0.0
23/03:00pm 33.3 33.5 20.1 45 8.8 SSE 19 28 10 15 1005.6 1005.3 0.0
23/02:30pm 33.3 33.9 18.6 41 9.6 S 13 20 7 11 1006.1 - 0.0
23/02:00pm 33.5 33.3 18.5 41 9.8 S 17 24 9 13 1006.4 - 0.0
23/01:30pm 33.3 32.7 18.4 41 9.7 SE 19 22 10 12 1006.8 - 0.0
23/01:00pm 32.5 31.0 18.5 43 9.1 S 24 35 13 19 1007.3 - 0.0
23/12:30pm 32.6 31.7 19.0 44 8.9 S 22 30 12 16 1007.5 - 0.0
23/12:00pm 32.0 30.7 19.0 46 8.5 SE 24 30 13 16 1008.0 1007.7 0.0
23/11:30am 31.2 30.2 19.7 50 7.6 SSE 24 32 13 17 1008.6 - 0.0
23/11:00am 31.1 31.8 20.4 53 7.1 SSE 17 26 9 14 1009.2 - 0.0
23/10:30am 29.9 30.3 20.6 57 6.2 SE 19 24 10 13 1009.6 - 0.0
23/10:00am 29.2 29.8 21.1 61 5.4 SE 19 26 10 14 1009.7 - 0.0
23/09:30am 28.7 29.9 21.4 64 4.9 SSE 17 22 9 12 1009.8 - 0.0
23/09:00am 27.9 29.0 21.3 67 4.4 SE 17 22 9 12 1009.9 1009.6 0.0
23/08:30am 27.2 28.9 20.9 68 4.2 SE 13 17 7 9 1009.8 - 0.0
23/08:00am 26.6 28.6 20.7 70 3.9 ESE 11 15 6 8 1009.7 - 0.0
23/07:30am 25.7 28.0 21.3 76 2.9 ESE 11 13 6 7 1009.5 - 0.0
23/07:00am 25.1 27.2 21.0 78 2.7 ESE 11 11 6 6 1009.3 - 0.0
23/06:30am 25.0 27.9 21.7 82 2.2 SE 9 11 5 6 1009.0 - 0.0
23/06:00am 24.5 27.9 22.0 86 1.7 ESE 7 9 4 5 1009.0 1008.7 0.0
23/05:30am 25.6 28.3 21.4 77 2.8 SSE 9 11 5 6 1008.8 - 0.0
23/05:00am 26.1 28.3 21.1 74 3.3 SE 11 13 6 7 1008.6 - 0.0
23/04:30am 26.0 28.9 21.7 77 2.9 SE 9 11 5 6 1008.6 - 0.0
23/04:00am 26.2 28.8 21.9 77 2.9 E 11 11 6 6 1008.2 - 0.0
23/03:30am 26.6 29.0 21.5 73 3.4 ESE 11 13 6 7 1008.0 - 0.0
23/03:00am 27.1 29.0 21.4 71 3.8 SE 13 15 7 8 1008.0 1007.7 0.0
23/02:30am 26.8 29.4 21.9 74 3.3 SSE 11 13 6 7 1008.3 - 0.0
23/02:00am 26.2 30.5 23.7 86 1.7 SSE 7 9 4 5 1008.4 - 0.0
23/01:30am 26.0 31.7 24.4 91 1.1 ESE 2 6 1 3 1008.9 - 0.0
23/01:00am 26.2 32.4 24.6 91 1.1 CALM 0 4 0 2 1009.4 - 0.0
23/12:30am 26.2 31.2 24.8 92 1.0 WSW 7 7 4 4 1009.8 - 0.0
23/12:00am 27.3 32.2 24.6 85 1.9 W 7 7 4 4 1009.9 1009.6 0.0
 
Date/Time
CST
Temp
°C
App
Temp
°C
Dew
Point
Rel
Hum
%
Delta-T
°C
Wind Press
QNH
hPa
Press
MSL
hPa
Rain
since 9 am
mm
Dir
 
Spd
km/h
Gust
km/h
Spd
kts
Gust
kts
22/11:30pm 26.6 31.7 24.6 89 1.4 N 6 7 3 4 1010.4 - 0.0
22/11:00pm 27.0 31.6 24.7 87 1.6 NNW 9 15 5 8 1010.4 - 0.0
22/10:30pm 27.5 31.6 24.6 84 2.0 NNW 11 13 6 7 1010.4 - 0.0
22/10:00pm 28.0 32.2 24.1 79 2.7 NNE 9 11 5 6 1010.3 - 0.0
22/09:30pm 27.4 30.9 22.8 76 3.1 S 9 13 5 7 1009.8 - 0.0
22/09:00pm 28.7 31.9 22.4 68 4.3 S 9 11 5 6 1009.3 1009.0 0.0
22/08:30pm 28.5 33.0 23.6 75 3.4 ESE 6 7 3 4 1009.2 - 0.0
22/08:00pm 28.8 33.5 24.0 75 3.3 E 6 6 3 3 1009.0 - 0.0
22/07:30pm 28.8 33.7 24.3 76 3.1 E 6 7 3 4 1008.6 - 0.0
22/07:00pm 29.4 32.8 22.7 67 4.6 E 9 9 5 5 1008.3 - 0.0
22/06:30pm 31.4 32.3 19.2 48 8.0 ESE 13 15 7 8 1007.9 - 0.0
22/06:00pm 32.2 32.3 19.1 45 8.6 ESE 17 20 9 11 1007.6 1007.3 0.0
22/05:30pm 32.8 32.7 19.5 45 8.8 ESE 19 24 10 13 1007.3 - 0.0

Other Formats:

Comma delimited format used in spreadsheet applications
http://www.bom.gov.au/fwo/IDD60801/IDD60801.94120.axf

JavaScript Object Notation format (JSON) in row-major order
http://www.bom.gov.au/fwo/IDD60801/IDD60801.94120.json